sensor_id;sensor_type;location;lat;lon;timestamp;temperature;humidity
34985;DHT22;21190;58.750;17.004;2023-09-19T00:00:47;17.50;99.90
34985;DHT22;21190;58.750;17.004;2023-09-19T00:03:16;17.40;99.90
34985;DHT22;21190;58.750;17.004;2023-09-19T00:05:43;17.50;99.90
34985;DHT22;21190;58.750;17.004;2023-09-19T00:08:11;17.40;99.90
34985;DHT22;21190;58.750;17.004;2023-09-19T00:10:41;17.40;99.90
34985;DHT22;21190;58.750;17.004;2023-09-19T00:13:09;17.40;99.90
34985;DHT22;21190;58.750;17.004;2023-09-19T00:15:46;17.40;99.90
34985;DHT22;21190;58.750;17.004;2023-09-19T00:18:18;17.40;99.90
34985;DHT22;21190;58.750;17.004;2023-09-19T00:20:49;17.40;99.90
34985;DHT22;21190;58.750;17.004;2023-09-19T00:23:18;17.40;99.90
34985;DHT22;21190;58.750;17.004;2023-09-19T00:25:46;17.40;99.90
34985;DHT22;21190;58.750;17.004;2023-09-19T00:28:14;17.30;99.90
34985;DHT22;21190;58.750;17.004;2023-09-19T00:30:42;17.30;99.90
34985;DHT22;21190;58.750;17.004;2023-09-19T00:33:11;17.40;99.90
34985;DHT22;21190;58.750;17.004;2023-09-19T00:35:52;17.30;99.90
34985;DHT22;21190;58.750;17.004;2023-09-19T00:38:19;17.30;99.90
34985;DHT22;21190;58.750;17.004;2023-09-19T00:40:49;17.30;99.90
34985;DHT22;21190;58.750;17.004;2023-09-19T00:43:18;17.40;99.90
34985;DHT22;21190;58.750;17.004;2023-09-19T00:45:47;17.40;99.90
34985;DHT22;21190;58.750;17.004;2023-09-19T00:48:19;17.40;99.90
34985;DHT22;21190;58.750;17.004;2023-09-19T00:50:48;17.40;99.90
34985;DHT22;21190;58.750;17.004;2023-09-19T00:53:19;17.50;99.90
34985;DHT22;21190;58.750;17.004;2023-09-19T00:55:48;17.40;99.90
34985;DHT22;21190;58.750;17.004;2023-09-19T00:58:17;17.40;99.90
34985;DHT22;21190;58.750;17.004;2023-09-19T01:00:47;17.40;99.90
34985;DHT22;21190;58.750;17.004;2023-09-19T01:03:15;17.50;99.90
34985;DHT22;21190;58.750;17.004;2023-09-19T01:05:42;17.40;99.90
34985;DHT22;21190;58.750;17.004;2023-09-19T01:08:09;17.40;99.90
34985;DHT22;21190;58.750;17.004;2023-09-19T01:10:46;17.40;99.90
34985;DHT22;21190;58.750;17.004;2023-09-19T01:13:29;17.50;99.90
34985;DHT22;21190;58.750;17.004;2023-09-19T01:16:32;17.50;99.90
34985;DHT22;21190;58.750;17.004;2023-09-19T01:25:18;17.40;99.90
34985;DHT22;21190;58.750;17.004;2023-09-19T01:30:54;17.50;99.90
34985;DHT22;21190;58.750;17.004;2023-09-19T01:33:24;17.50;99.90
34985;DHT22;21190;58.750;17.004;2023-09-19T01:35:53;17.50;99.90
34985;DHT22;21190;58.750;17.004;2023-09-19T01:38:20;17.50;99.90
34985;DHT22;21190;58.750;17.004;2023-09-19T01:41:00;17.50;99.90
34985;DHT22;21190;58.750;17.004;2023-09-19T01:43:36;17.50;99.90
34985;DHT22;21190;58.750;17.004;2023-09-19T01:48:48;17.50;99.90
34985;DHT22;21190;58.750;17.004;2023-09-19T01:51:27;17.50;99.90
34985;DHT22;21190;58.750;17.004;2023-09-19T01:54:09;17.50;99.90
34985;DHT22;21190;58.750;17.004;2023-09-19T01:57:02;17.50;99.90
34985;DHT22;21190;58.750;17.004;2023-09-19T01:59:46;17.50;99.90
34985;DHT22;21190;58.750;17.004;2023-09-19T02:02:17;17.50;99.90
34985;DHT22;21190;58.750;17.004;2023-09-19T02:04:44;17.40;99.90
34985;DHT22;21190;58.750;17.004;2023-09-19T02:07:12;17.40;99.90
34985;DHT22;21190;58.750;17.004;2023-09-19T02:09:39;17.50;99.90
34985;DHT22;21190;58.750;17.004;2023-09-19T02:12:06;17.40;99.90
34985;DHT22;21190;58.750;17.004;2023-09-19T02:14:33;17.50;99.90
34985;DHT22;21190;58.750;17.004;2023-09-19T02:17:03;17.40;99.90
34985;DHT22;21190;58.750;17.004;2023-09-19T02:19:34;17.50;99.90
34985;DHT22;21190;58.750;17.004;2023-09-19T02:22:01;17.50;99.90
34985;DHT22;21190;58.750;17.004;2023-09-19T02:24:34;17.50;99.90
34985;DHT22;21190;58.750;17.004;2023-09-19T02:27:01;17.60;99.90
34985;DHT22;21190;58.750;17.004;2023-09-19T02:29:31;17.50;99.90
34985;DHT22;21190;58.750;17.004;2023-09-19T02:31:58;17.50;99.90
34985;DHT22;21190;58.750;17.004;2023-09-19T02:34:28;17.50;99.90
34985;DHT22;21190;58.750;17.004;2023-09-19T02:36:55;17.50;99.90
34985;DHT22;21190;58.750;17.004;2023-09-19T02:39:23;17.50;99.90
34985;DHT22;21190;58.750;17.004;2023-09-19T02:41:50;17.50;99.90
34985;DHT22;21190;58.750;17.004;2023-09-19T02:44:17;17.60;99.90
34985;DHT22;21190;58.750;17.004;2023-09-19T02:46:46;17.60;99.90
34985;DHT22;21190;58.750;17.004;2023-09-19T02:49:14;17.60;99.90
34985;DHT22;21190;58.750;17.004;2023-09-19T02:51:41;17.50;99.90
34985;DHT22;21190;58.750;17.004;2023-09-19T02:54:08;17.50;99.90
34985;DHT22;21190;58.750;17.004;2023-09-19T02:56:36;17.50;99.90
34985;DHT22;21190;58.750;17.004;2023-09-19T02:59:04;17.50;99.90
34985;DHT22;21190;58.750;17.004;2023-09-19T03:01:31;17.40;99.90
34985;DHT22;21190;58.750;17.004;2023-09-19T03:03:59;17.40;99.90
34985;DHT22;21190;58.750;17.004;2023-09-19T03:06:26;17.40;99.90
34985;DHT22;21190;58.750;17.004;2023-09-19T03:08:53;17.40;99.90
34985;DHT22;21190;58.750;17.004;2023-09-19T03:11:20;17.40;99.90
34985;DHT22;21190;58.750;17.004;2023-09-19T03:13:53;17.40;99.90
34985;DHT22;21190;58.750;17.004;2023-09-19T03:16:21;17.40;99.90
34985;DHT22;21190;58.750;17.004;2023-09-19T03:18:52;17.40;99.90
34985;DHT22;21190;58.750;17.004;2023-09-19T03:21:19;17.40;99.90
34985;DHT22;21190;58.750;17.004;2023-09-19T03:23:46;17.40;99.90
34985;DHT22;21190;58.750;17.004;2023-09-19T03:26:13;17.40;99.90
34985;DHT22;21190;58.750;17.004;2023-09-19T03:28:43;17.30;99.90
34985;DHT22;21190;58.750;17.004;2023-09-19T03:31:12;17.30;99.90
34985;DHT22;21190;58.750;17.004;2023-09-19T03:33:40;17.30;99.90
34985;DHT22;21190;58.750;17.004;2023-09-19T03:36:07;17.30;99.90
34985;DHT22;21190;58.750;17.004;2023-09-19T03:38:34;17.30;99.90
34985;DHT22;21190;58.750;17.004;2023-09-19T03:41:02;17.30;99.90
34985;DHT22;21190;58.750;17.004;2023-09-19T03:43:31;17.30;99.90
34985;DHT22;21190;58.750;17.004;2023-09-19T03:46:02;17.30;99.90
34985;DHT22;21190;58.750;17.004;2023-09-19T03:48:32;17.30;99.90
34985;DHT22;21190;58.750;17.004;2023-09-19T03:51:00;17.20;99.90
34985;DHT22;21190;58.750;17.004;2023-09-19T03:53:27;17.20;99.90
34985;DHT22;21190;58.750;17.004;2023-09-19T03:55:54;17.20;99.90
34985;DHT22;21190;58.750;17.004;2023-09-19T03:58:21;17.20;99.90
34985;DHT22;21190;58.750;17.004;2023-09-19T04:00:48;17.20;99.90
34985;DHT22;21190;58.750;17.004;2023-09-19T04:03:17;17.20;99.90
34985;DHT22;21190;58.750;17.004;2023-09-19T04:05:48;17.10;99.90
34985;DHT22;21190;58.750;17.004;2023-09-19T04:08:15;17.10;99.90
34985;DHT22;21190;58.750;17.004;2023-09-19T04:10:43;17.10;99.90
34985;DHT22;21190;58.750;17.004;2023-09-19T04:13:10;17.10;99.90
34985;DHT22;21190;58.750;17.004;2023-09-19T04:15:37;17.10;99.90
34985;DHT22;21190;58.750;17.004;2023-09-19T04:18:04;17.10;99.90
34985;DHT22;21190;58.750;17.004;2023-09-19T04:20:32;17.10;99.90
34985;DHT22;21190;58.750;17.004;2023-09-19T04:22:59;17.10;99.90
34985;DHT22;21190;58.750;17.004;2023-09-19T04:25:26;17.10;99.90
34985;DHT22;21190;58.750;17.004;2023-09-19T04:27:54;17.10;99.90
34985;DHT22;21190;58.750;17.004;2023-09-19T04:30:21;17.10;99.90
34985;DHT22;21190;58.750;17.004;2023-09-19T04:32:48;17.10;99.90
34985;DHT22;21190;58.750;17.004;2023-09-19T04:35:18;17.10;99.90
34985;DHT22;21190;58.750;17.004;2023-09-19T04:37:45;17.00;99.90
34985;DHT22;21190;58.750;17.004;2023-09-19T04:40:12;17.10;99.90
34985;DHT22;21190;58.750;17.004;2023-09-19T04:42:40;17.00;99.90
34985;DHT22;21190;58.750;17.004;2023-09-19T04:45:08;17.00;99.90
34985;DHT22;21190;58.750;17.004;2023-09-19T04:47:39;17.00;99.90
34985;DHT22;21190;58.750;17.004;2023-09-19T04:50:08;17.00;99.90
34985;DHT22;21190;58.750;17.004;2023-09-19T04:52:40;17.00;99.90
34985;DHT22;21190;58.750;17.004;2023-09-19T04:55:15;16.90;99.90
34985;DHT22;21190;58.750;17.004;2023-09-19T04:57:50;16.90;99.90
34985;DHT22;21190;58.750;17.004;2023-09-19T05:00:19;17.00;99.90
34985;DHT22;21190;58.750;17.004;2023-09-19T05:02:51;17.00;99.90
34985;DHT22;21190;58.750;17.004;2023-09-19T05:05:18;17.00;99.90
34985;DHT22;21190;58.750;17.004;2023-09-19T05:07:46;16.90;99.90
34985;DHT22;21190;58.750;17.004;2023-09-19T05:10:14;16.80;99.90
34985;DHT22;21190;58.750;17.004;2023-09-19T05:12:41;16.90;99.90
34985;DHT22;21190;58.750;17.004;2023-09-19T05:15:08;16.90;99.90
34985;DHT22;21190;58.750;17.004;2023-09-19T05:17:36;16.80;99.90
34985;DHT22;21190;58.750;17.004;2023-09-19T05:20:03;16.80;99.90
34985;DHT22;21190;58.750;17.004;2023-09-19T05:23:11;16.90;99.90
34985;DHT22;21190;58.750;17.004;2023-09-19T05:25:40;16.90;99.90
34985;DHT22;21190;58.750;17.004;2023-09-19T05:28:08;16.90;99.90
34985;DHT22;21190;58.750;17.004;2023-09-19T05:30:36;16.90;99.90
34985;DHT22;21190;58.750;17.004;2023-09-19T05:33:03;16.90;99.90
34985;DHT22;21190;58.750;17.004;2023-09-19T05:35:31;16.90;99.90
34985;DHT22;21190;58.750;17.004;2023-09-19T05:37:59;17.00;99.90
34985;DHT22;21190;58.750;17.004;2023-09-19T05:40:26;16.90;99.90
34985;DHT22;21190;58.750;17.004;2023-09-19T05:42:54;17.00;99.90
34985;DHT22;21190;58.750;17.004;2023-09-19T05:45:21;17.00;99.90
34985;DHT22;21190;58.750;17.004;2023-09-19T05:47:52;17.00;99.90
34985;DHT22;21190;58.750;17.004;2023-09-19T05:50:22;17.00;99.90
34985;DHT22;21190;58.750;17.004;2023-09-19T05:52:53;17.00;99.90
34985;DHT22;21190;58.750;17.004;2023-09-19T05:55:20;17.10;99.90
34985;DHT22;21190;58.750;17.004;2023-09-19T05:57:52;17.10;99.90
34985;DHT22;21190;58.750;17.004;2023-09-19T06:00:20;17.20;99.90
34985;DHT22;21190;58.750;17.004;2023-09-19T06:02:53;17.20;99.90
34985;DHT22;21190;58.750;17.004;2023-09-19T06:05:20;17.20;99.90
34985;DHT22;21190;58.750;17.004;2023-09-19T06:07:47;17.20;99.90
34985;DHT22;21190;58.750;17.004;2023-09-19T06:10:15;17.20;99.90
34985;DHT22;21190;58.750;17.004;2023-09-19T06:12:44;17.30;99.90
34985;DHT22;21190;58.750;17.004;2023-09-19T06:15:16;17.40;99.90
34985;DHT22;21190;58.750;17.004;2023-09-19T06:17:49;17.40;99.90
34985;DHT22;21190;58.750;17.004;2023-09-19T06:20:17;17.40;99.90
34985;DHT22;21190;58.750;17.004;2023-09-19T06:22:45;17.40;99.90
34985;DHT22;21190;58.750;17.004;2023-09-19T06:25:13;17.50;99.90
34985;DHT22;21190;58.750;17.004;2023-09-19T06:27:51;17.50;99.90
34985;DHT22;21190;58.750;17.004;2023-09-19T06:30:22;17.50;99.90
34985;DHT22;21190;58.750;17.004;2023-09-19T06:32:57;17.50;99.90
34985;DHT22;21190;58.750;17.004;2023-09-19T06:35:25;17.60;99.90
34985;DHT22;21190;58.750;17.004;2023-09-19T06:37:53;17.60;99.90
34985;DHT22;21190;58.750;17.004;2023-09-19T06:40:20;17.70;99.90
34985;DHT22;21190;58.750;17.004;2023-09-19T06:42:50;17.70;99.90
34985;DHT22;21190;58.750;17.004;2023-09-19T06:45:18;17.80;99.90
34985;DHT22;21190;58.750;17.004;2023-09-19T06:47:49;17.80;99.90
34985;DHT22;21190;58.750;17.004;2023-09-19T06:50:18;17.80;99.90
34985;DHT22;21190;58.750;17.004;2023-09-19T06:52:46;17.80;99.90
34985;DHT22;21190;58.750;17.004;2023-09-19T06:55:20;17.80;99.90
34985;DHT22;21190;58.750;17.004;2023-09-19T06:57:48;17.80;99.90
34985;DHT22;21190;58.750;17.004;2023-09-19T07:00:16;17.80;99.90
34985;DHT22;21190;58.750;17.004;2023-09-19T07:03:03;17.80;99.90
34985;DHT22;21190;58.750;17.004;2023-09-19T07:05:33;17.90;99.90
34985;DHT22;21190;58.750;17.004;2023-09-19T07:08:03;17.90;99.90
34985;DHT22;21190;58.750;17.004;2023-09-19T07:10:30;17.90;99.90
34985;DHT22;21190;58.750;17.004;2023-09-19T07:13:02;17.90;99.90
34985;DHT22;21190;58.750;17.004;2023-09-19T07:15:32;17.90;99.90
34985;DHT22;21190;58.750;17.004;2023-09-19T07:18:00;17.90;99.90
34985;DHT22;21190;58.750;17.004;2023-09-19T07:20:28;17.90;99.90
34985;DHT22;21190;58.750;17.004;2023-09-19T07:22:58;17.90;99.90
34985;DHT22;21190;58.750;17.004;2023-09-19T07:25:29;17.90;99.90
34985;DHT22;21190;58.750;17.004;2023-09-19T07:28:00;18.00;99.90
34985;DHT22;21190;58.750;17.004;2023-09-19T07:30:28;18.00;99.90
34985;DHT22;21190;58.750;17.004;2023-09-19T07:32:55;18.00;99.90
34985;DHT22;21190;58.750;17.004;2023-09-19T07:35:22;18.00;99.90
34985;DHT22;21190;58.750;17.004;2023-09-19T07:37:49;18.10;99.90
34985;DHT22;21190;58.750;17.004;2023-09-19T07:40:19;18.10;99.90
34985;DHT22;21190;58.750;17.004;2023-09-19T07:42:47;18.10;99.90
34985;DHT22;21190;58.750;17.004;2023-09-19T07:45:15;18.10;99.90
34985;DHT22;21190;58.750;17.004;2023-09-19T07:47:45;18.10;99.90
34985;DHT22;21190;58.750;17.004;2023-09-19T07:50:13;18.10;99.90
34985;DHT22;21190;58.750;17.004;2023-09-19T07:52:41;18.10;99.90
34985;DHT22;21190;58.750;17.004;2023-09-19T07:55:09;18.10;99.90
34985;DHT22;21190;58.750;17.004;2023-09-19T07:57:38;18.10;99.90
34985;DHT22;21190;58.750;17.004;2023-09-19T08:00:05;18.10;99.90
34985;DHT22;21190;58.750;17.004;2023-09-19T08:02:37;18.20;99.90
34985;DHT22;21190;58.750;17.004;2023-09-19T08:05:06;18.30;99.90
34985;DHT22;21190;58.750;17.004;2023-09-19T08:07:33;18.30;99.90
34985;DHT22;21190;58.750;17.004;2023-09-19T08:10:00;18.40;99.90
34985;DHT22;21190;58.750;17.004;2023-09-19T08:12:27;18.40;99.90
34985;DHT22;21190;58.750;17.004;2023-09-19T08:14:54;18.50;99.90
34985;DHT22;21190;58.750;17.004;2023-09-19T08:17:22;18.40;99.90
34985;DHT22;21190;58.750;17.004;2023-09-19T08:19:52;18.50;99.90
34985;DHT22;21190;58.750;17.004;2023-09-19T08:22:20;18.50;99.90
34985;DHT22;21190;58.750;17.004;2023-09-19T08:24:48;18.50;99.90
34985;DHT22;21190;58.750;17.004;2023-09-19T08:27:15;18.60;99.90
34985;DHT22;21190;58.750;17.004;2023-09-19T08:29:45;18.60;99.90
34985;DHT22;21190;58.750;17.004;2023-09-19T08:32:13;18.70;99.90
34985;DHT22;21190;58.750;17.004;2023-09-19T08:34:41;18.70;99.90
34985;DHT22;21190;58.750;17.004;2023-09-19T08:37:08;18.80;99.90
34985;DHT22;21190;58.750;17.004;2023-09-19T08:39:35;18.80;99.90
34985;DHT22;21190;58.750;17.004;2023-09-19T08:42:03;18.80;99.90
34985;DHT22;21190;58.750;17.004;2023-09-19T08:44:37;18.80;99.90
34985;DHT22;21190;58.750;17.004;2023-09-19T08:47:10;18.80;99.90
34985;DHT22;21190;58.750;17.004;2023-09-19T08:49:53;18.80;99.90
34985;DHT22;21190;58.750;17.004;2023-09-19T08:52:28;18.90;99.90
34985;DHT22;21190;58.750;17.004;2023-09-19T08:54:59;18.90;99.90
34985;DHT22;21190;58.750;17.004;2023-09-19T08:57:29;18.80;99.90
34985;DHT22;21190;58.750;17.004;2023-09-19T09:00:00;18.80;99.90
34985;DHT22;21190;58.750;17.004;2023-09-19T09:02:28;18.90;99.90
34985;DHT22;21190;58.750;17.004;2023-09-19T09:04:58;18.90;99.90
34985;DHT22;21190;58.750;17.004;2023-09-19T09:07:27;19.00;99.90
34985;DHT22;21190;58.750;17.004;2023-09-19T09:09:55;19.00;99.90
34985;DHT22;21190;58.750;17.004;2023-09-19T09:12:22;19.00;99.90
34985;DHT22;21190;58.750;17.004;2023-09-19T09:14:50;19.00;99.90
34985;DHT22;21190;58.750;17.004;2023-09-19T09:17:19;19.00;99.90
34985;DHT22;21190;58.750;17.004;2023-09-19T09:19:47;19.00;99.90
34985;DHT22;21190;58.750;17.004;2023-09-19T09:22:14;19.10;99.90
34985;DHT22;21190;58.750;17.004;2023-09-19T09:24:59;19.20;99.90
34985;DHT22;21190;58.750;17.004;2023-09-19T09:27:30;19.30;99.90
34985;DHT22;21190;58.750;17.004;2023-09-19T09:29:59;19.30;99.90
34985;DHT22;21190;58.750;17.004;2023-09-19T09:32:28;19.40;99.90
34985;DHT22;21190;58.750;17.004;2023-09-19T09:34:57;19.40;99.90
34985;DHT22;21190;58.750;17.004;2023-09-19T09:37:28;19.40;99.90
34985;DHT22;21190;58.750;17.004;2023-09-19T09:39:59;19.50;99.90
34985;DHT22;21190;58.750;17.004;2023-09-19T09:42:45;19.50;99.90
34985;DHT22;21190;58.750;17.004;2023-09-19T09:45:21;19.50;99.90
34985;DHT22;21190;58.750;17.004;2023-09-19T09:48:00;19.50;99.90
34985;DHT22;21190;58.750;17.004;2023-09-19T09:50:35;19.50;99.90
34985;DHT22;21190;58.750;17.004;2023-09-19T09:53:25;19.40;99.90
34985;DHT22;21190;58.750;17.004;2023-09-19T09:55:59;19.40;99.90
34985;DHT22;21190;58.750;17.004;2023-09-19T09:58:27;19.30;99.90
34985;DHT22;21190;58.750;17.004;2023-09-19T10:00:57;19.20;99.90
34985;DHT22;21190;58.750;17.004;2023-09-19T10:03:35;19.10;99.90
34985;DHT22;21190;58.750;17.004;2023-09-19T10:06:07;18.90;99.90
34985;DHT22;21190;58.750;17.004;2023-09-19T10:09:06;18.80;99.90
34985;DHT22;21190;58.750;17.004;2023-09-19T10:11:46;18.70;99.90
34985;DHT22;21190;58.750;17.004;2023-09-19T10:14:17;18.60;99.90
34985;DHT22;21190;58.750;17.004;2023-09-19T10:16:52;18.70;99.90
34985;DHT22;21190;58.750;17.004;2023-09-19T10:19:24;18.60;99.90
34985;DHT22;21190;58.750;17.004;2023-09-19T10:21:54;18.70;99.90
34985;DHT22;21190;58.750;17.004;2023-09-19T10:24:23;18.70;99.90
34985;DHT22;21190;58.750;17.004;2023-09-19T10:26:53;18.70;99.90
34985;DHT22;21190;58.750;17.004;2023-09-19T10:29:22;18.80;99.90
34985;DHT22;21190;58.750;17.004;2023-09-19T10:31:52;18.90;99.90
34985;DHT22;21190;58.750;17.004;2023-09-19T10:34:20;18.90;99.90
34985;DHT22;21190;58.750;17.004;2023-09-19T10:36:51;18.90;99.90
34985;DHT22;21190;58.750;17.004;2023-09-19T10:39:18;19.00;99.90
34985;DHT22;21190;58.750;17.004;2023-09-19T10:41:50;19.00;99.90
34985;DHT22;21190;58.750;17.004;2023-09-19T10:44:24;19.00;99.90
34985;DHT22;21190;58.750;17.004;2023-09-19T10:46:55;18.90;99.90
34985;DHT22;21190;58.750;17.004;2023-09-19T10:49:24;18.90;99.90
34985;DHT22;21190;58.750;17.004;2023-09-19T10:51:57;18.90;99.90
34985;DHT22;21190;58.750;17.004;2023-09-19T10:54:33;18.80;99.90
34985;DHT22;21190;58.750;17.004;2023-09-19T10:57:03;18.80;99.90
34985;DHT22;21190;58.750;17.004;2023-09-19T10:59:32;18.80;99.90
34985;DHT22;21190;58.750;17.004;2023-09-19T11:02:16;18.90;99.90
34985;DHT22;21190;58.750;17.004;2023-09-19T11:04:44;18.90;99.90
34985;DHT22;21190;58.750;17.004;2023-09-19T11:07:15;19.00;99.90
34985;DHT22;21190;58.750;17.004;2023-09-19T11:09:46;19.10;99.90
34985;DHT22;21190;58.750;17.004;2023-09-19T11:14:58;19.10;99.90
34985;DHT22;21190;58.750;17.004;2023-09-19T11:17:38;19.10;99.90
34985;DHT22;21190;58.750;17.004;2023-09-19T11:30:40;19.30;99.90
34985;DHT22;21190;58.750;17.004;2023-09-19T11:36:10;19.30;99.90
34985;DHT22;21190;58.750;17.004;2023-09-19T11:43:48;19.40;99.90
34985;DHT22;21190;58.750;17.004;2023-09-19T11:46:21;19.30;99.90
34985;DHT22;21190;58.750;17.004;2023-09-19T11:48:49;19.30;99.90
34985;DHT22;21190;58.750;17.004;2023-09-19T11:51:21;19.30;99.90
34985;DHT22;21190;58.750;17.004;2023-09-19T11:53:58;19.20;99.90
34985;DHT22;21190;58.750;17.004;2023-09-19T11:56:29;19.20;99.90
34985;DHT22;21190;58.750;17.004;2023-09-19T11:58:58;19.10;99.90
34985;DHT22;21190;58.750;17.004;2023-09-19T12:01:32;19.10;99.90
34985;DHT22;21190;58.750;17.004;2023-09-19T12:04:03;19.00;99.90
34985;DHT22;21190;58.750;17.004;2023-09-19T12:06:32;19.00;99.90
34985;DHT22;21190;58.750;17.004;2023-09-19T12:08:59;19.00;99.90
34985;DHT22;21190;58.750;17.004;2023-09-19T12:11:30;19.00;99.90
34985;DHT22;21190;58.750;17.004;2023-09-19T12:14:01;19.00;99.90
34985;DHT22;21190;58.750;17.004;2023-09-19T12:16:29;18.90;99.90
34985;DHT22;21190;58.750;17.004;2023-09-19T12:19:18;18.90;99.90
34985;DHT22;21190;58.750;17.004;2023-09-19T12:22:00;18.80;99.90
34985;DHT22;21190;58.750;17.004;2023-09-19T12:24:35;18.80;99.90
34985;DHT22;21190;58.750;17.004;2023-09-19T12:27:06;18.70;99.90
34985;DHT22;21190;58.750;17.004;2023-09-19T12:29:47;18.60;99.90
34985;DHT22;21190;58.750;17.004;2023-09-19T12:32:41;18.50;99.90
34985;DHT22;21190;58.750;17.004;2023-09-19T12:35:09;18.40;99.90
34985;DHT22;21190;58.750;17.004;2023-09-19T12:37:43;18.30;99.90
34985;DHT22;21190;58.750;17.004;2023-09-19T12:40:15;18.20;99.90
34985;DHT22;21190;58.750;17.004;2023-09-19T12:42:49;18.20;99.90
34985;DHT22;21190;58.750;17.004;2023-09-19T12:45:17;18.10;99.90
34985;DHT22;21190;58.750;17.004;2023-09-19T12:48:21;18.00;99.90
34985;DHT22;21190;58.750;17.004;2023-09-19T12:51:10;17.80;99.90
34985;DHT22;21190;58.750;17.004;2023-09-19T12:53:44;17.80;99.90
34985;DHT22;21190;58.750;17.004;2023-09-19T12:56:16;17.80;99.90
34985;DHT22;21190;58.750;17.004;2023-09-19T12:58:56;17.70;99.90
34985;DHT22;21190;58.750;17.004;2023-09-19T13:01:24;17.70;99.90
34985;DHT22;21190;58.750;17.004;2023-09-19T13:06:52;17.70;99.90
34985;DHT22;21190;58.750;17.004;2023-09-19T13:09:21;17.70;99.90
34985;DHT22;21190;58.750;17.004;2023-09-19T13:11:49;17.70;99.90
34985;DHT22;21190;58.750;17.004;2023-09-19T13:25:18;17.40;99.90
34985;DHT22;21190;58.750;17.004;2023-09-19T13:27:53;17.30;99.90
34985;DHT22;21190;58.750;17.004;2023-09-19T13:30:26;17.30;99.90
34985;DHT22;21190;58.750;17.004;2023-09-19T13:33:09;17.30;99.90
34985;DHT22;21190;58.750;17.004;2023-09-19T13:35:38;17.20;99.90
34985;DHT22;21190;58.750;17.004;2023-09-19T13:38:07;17.20;99.90
34985;DHT22;21190;58.750;17.004;2023-09-19T13:40:39;17.10;99.90
34985;DHT22;21190;58.750;17.004;2023-09-19T13:43:06;17.20;99.90
34985;DHT22;21190;58.750;17.004;2023-09-19T13:45:33;17.10;99.90
34985;DHT22;21190;58.750;17.004;2023-09-19T13:48:00;17.10;99.90
34985;DHT22;21190;58.750;17.004;2023-09-19T13:50:28;17.10;99.90
34985;DHT22;21190;58.750;17.004;2023-09-19T13:52:56;17.10;99.90
34985;DHT22;21190;58.750;17.004;2023-09-19T13:55:24;17.20;99.90
34985;DHT22;21190;58.750;17.004;2023-09-19T13:57:51;17.20;99.90
34985;DHT22;21190;58.750;17.004;2023-09-19T14:00:22;17.20;99.90
34985;DHT22;21190;58.750;17.004;2023-09-19T14:02:49;17.30;99.90
34985;DHT22;21190;58.750;17.004;2023-09-19T14:05:18;17.30;99.90
34985;DHT22;21190;58.750;17.004;2023-09-19T14:07:48;17.40;99.90
34985;DHT22;21190;58.750;17.004;2023-09-19T14:10:15;17.50;99.90
34985;DHT22;21190;58.750;17.004;2023-09-19T14:12:45;17.50;99.90
34985;DHT22;21190;58.750;17.004;2023-09-19T14:15:12;17.30;99.90
34985;DHT22;21190;58.750;17.004;2023-09-19T14:17:40;17.30;99.90
34985;DHT22;21190;58.750;17.004;2023-09-19T14:20:11;17.20;99.90
34985;DHT22;21190;58.750;17.004;2023-09-19T14:22:38;17.10;99.90
34985;DHT22;21190;58.750;17.004;2023-09-19T14:25:06;17.00;99.90
34985;DHT22;21190;58.750;17.004;2023-09-19T14:27:33;16.90;99.90
34985;DHT22;21190;58.750;17.004;2023-09-19T14:30:00;16.60;99.90
34985;DHT22;21190;58.750;17.004;2023-09-19T14:32:27;16.40;99.90
34985;DHT22;21190;58.750;17.004;2023-09-19T14:34:54;16.30;99.90
34985;DHT22;21190;58.750;17.004;2023-09-19T14:37:21;16.20;99.90
34985;DHT22;21190;58.750;17.004;2023-09-19T14:39:48;16.10;99.90
34985;DHT22;21190;58.750;17.004;2023-09-19T14:42:14;16.10;99.90
34985;DHT22;21190;58.750;17.004;2023-09-19T14:44:44;16.10;99.90
34985;DHT22;21190;58.750;17.004;2023-09-19T14:47:12;16.10;99.90
34985;DHT22;21190;58.750;17.004;2023-09-19T14:49:40;16.20;99.90
34985;DHT22;21190;58.750;17.004;2023-09-19T14:52:08;16.20;99.90
34985;DHT22;21190;58.750;17.004;2023-09-19T14:54:36;16.20;99.90
34985;DHT22;21190;58.750;17.004;2023-09-19T14:57:08;16.10;99.90
34985;DHT22;21190;58.750;17.004;2023-09-19T14:59:35;16.10;99.90
34985;DHT22;21190;58.750;17.004;2023-09-19T15:02:06;16.10;99.90
34985;DHT22;21190;58.750;17.004;2023-09-19T15:04:33;16.00;99.90
34985;DHT22;21190;58.750;17.004;2023-09-19T15:07:01;15.90;99.90
34985;DHT22;21190;58.750;17.004;2023-09-19T15:09:29;15.90;99.90
34985;DHT22;21190;58.750;17.004;2023-09-19T15:11:58;15.90;99.90
34985;DHT22;21190;58.750;17.004;2023-09-19T15:14:25;15.80;99.90
34985;DHT22;21190;58.750;17.004;2023-09-19T15:16:52;15.80;99.90
34985;DHT22;21190;58.750;17.004;2023-09-19T15:19:20;15.70;99.90
34985;DHT22;21190;58.750;17.004;2023-09-19T15:21:49;15.80;99.90
34985;DHT22;21190;58.750;17.004;2023-09-19T15:24:16;15.70;99.90
34985;DHT22;21190;58.750;17.004;2023-09-19T15:26:43;15.70;99.90
34985;DHT22;21190;58.750;17.004;2023-09-19T15:29:11;15.70;99.90
34985;DHT22;21190;58.750;17.004;2023-09-19T15:31:39;15.70;99.90
34985;DHT22;21190;58.750;17.004;2023-09-19T15:34:07;15.70;99.90
34985;DHT22;21190;58.750;17.004;2023-09-19T15:36:34;15.70;99.90
34985;DHT22;21190;58.750;17.004;2023-09-19T15:39:03;15.60;99.90
34985;DHT22;21190;58.750;17.004;2023-09-19T15:41:35;15.60;99.90
34985;DHT22;21190;58.750;17.004;2023-09-19T15:44:10;15.60;99.90
34985;DHT22;21190;58.750;17.004;2023-09-19T15:46:37;15.60;99.90
34985;DHT22;21190;58.750;17.004;2023-09-19T15:49:05;15.60;99.90
34985;DHT22;21190;58.750;17.004;2023-09-19T15:51:31;15.60;99.90
34985;DHT22;21190;58.750;17.004;2023-09-19T15:53:58;15.50;99.90
34985;DHT22;21190;58.750;17.004;2023-09-19T15:56:29;15.50;99.90
34985;DHT22;21190;58.750;17.004;2023-09-19T15:58:56;15.50;99.90
34985;DHT22;21190;58.750;17.004;2023-09-19T16:01:23;15.50;99.90
34985;DHT22;21190;58.750;17.004;2023-09-19T16:03:52;15.50;99.90
34985;DHT22;21190;58.750;17.004;2023-09-19T16:06:22;15.40;99.90
34985;DHT22;21190;58.750;17.004;2023-09-19T16:08:57;15.40;99.90
34985;DHT22;21190;58.750;17.004;2023-09-19T16:11:26;15.30;99.90
34985;DHT22;21190;58.750;17.004;2023-09-19T16:13:54;15.30;99.90
34985;DHT22;21190;58.750;17.004;2023-09-19T16:16:22;15.30;99.90
34985;DHT22;21190;58.750;17.004;2023-09-19T16:18:53;15.30;99.90
34985;DHT22;21190;58.750;17.004;2023-09-19T16:21:25;15.20;99.90